Time;durP1;ratioP1;P1;durP2;ratioP2;P2;SDS_P1;SDS_P2;PMS_P1;PMS_P2;Temp;Humidity;BMP_temperature;BMP_pressure;BME280_temperature;BME280_humidity;BME280_pressure;Samples;Min_cycle;Max_cycle;Signal;HPM_P1;HPM_P2
2022/01/28 00:01:04;;;;;;;6.43;4.80;;;-2.70;90.10;;;;;;5022413;28;20190;-73
2022/01/28 00:03:33;;;;;;;10.27;4.80;;;-2.80;90.30;;;;;;5025100;28;20303;-73
2022/01/28 00:05:59;;;;;;;7.07;5.87;;;-2.90;90.50;;;;;;5028036;28;20195;-74
2022/01/28 00:08:25;;;;;;;9.73;5.40;;;-2.90;90.70;;;;;;5026662;28;20194;-75
2022/01/28 00:10:52;;;;;;;8.07;4.93;;;-3.00;90.70;;;;;;5028946;28;20218;-74
2022/01/28 00:37:47;;;;;;;8.87;4.50;;;-3.20;91.30;;;;;;5073258;28;20732;-73
2022/01/28 00:40:09;;;;;;;6.57;4.33;;;-3.20;91.20;;;;;;5070743;28;20216;-73
2022/01/28 00:42:35;;;;;;;5.80;4.27;;;-3.10;91.10;;;;;;5073569;28;20210;-73
2022/01/28 00:45:01;;;;;;;7.13;4.57;;;-3.20;91.10;;;;;;5065822;28;20197;-73
2022/01/28 00:47:27;;;;;;;8.27;4.87;;;-3.20;91.20;;;;;;5072189;28;20202;-74
2022/01/28 00:49:53;;;;;;;6.13;3.83;;;-3.10;91.10;;;;;;5066206;28;20182;-75
2022/01/28 00:52:18;;;;;;;4.40;3.83;;;-3.20;91.00;;;;;;5070671;28;20365;-73
2022/01/28 00:54:44;;;;;;;4.80;4.33;;;-3.10;90.90;;;;;;5070900;28;20183;-75
2022/01/28 00:57:10;;;;;;;6.90;4.77;;;-3.20;90.80;;;;;;5071096;28;20171;-74
2022/01/28 00:59:36;;;;;;;5.10;3.57;;;-3.20;90.80;;;;;;5068426;28;20261;-73
2022/01/28 01:02:01;;;;;;;4.60;4.20;;;-3.10;90.80;;;;;;5068958;28;20274;-73
2022/01/28 01:04:27;;;;;;;7.37;3.97;;;-3.20;90.60;;;;;;5070247;28;20179;-73
2022/01/28 01:06:53;;;;;;;5.43;3.10;;;-3.20;90.60;;;;;;5067659;28;20174;-75
2022/01/28 01:09:18;;;;;;;11.57;4.87;;;-3.20;90.50;;;;;;5064630;28;20187;-73
2022/01/28 01:11:44;;;;;;;3.67;3.43;;;-3.20;90.50;;;;;;5073210;28;20205;-74
2022/01/28 01:14:11;;;;;;;6.50;4.27;;;-3.20;90.60;;;;;;5071272;28;20181;-74
2022/01/28 01:17:00;;;;;;;5.53;4.20;;;-3.20;90.70;;;;;;5069205;28;20652;-74
2022/01/28 01:19:29;;;;;;;6.23;5.07;;;-3.20;90.60;;;;;;5071409;28;20263;-74
2022/01/28 01:21:58;;;;;;;5.53;4.07;;;-3.20;90.70;;;;;;5067232;28;20218;-72
2022/01/28 01:24:27;;;;;;;7.63;3.93;;;-3.20;90.70;;;;;;5067673;28;20210;-72
2022/01/28 01:26:53;;;;;;;9.07;4.40;;;-3.20;90.70;;;;;;5064299;28;20206;-72
2022/01/28 01:29:21;;;;;;;7.83;5.10;;;-3.20;90.70;;;;;;5068402;28;20216;-72
2022/01/28 01:31:48;;;;;;;4.03;3.03;;;-3.20;90.70;;;;;;5066693;28;20190;-73
2022/01/28 01:34:21;;;;;;;9.90;4.83;;;-3.30;90.80;;;;;;5068802;28;20185;-73
2022/01/28 01:36:47;;;;;;;4.80;4.40;;;-3.30;90.90;;;;;;5073559;28;20816;-73
2022/01/28 01:39:22;;;;;;;14.17;4.73;;;-3.30;90.90;;;;;;5072084;28;20187;-73
2022/01/28 01:41:58;;;;;;;3.80;3.27;;;-3.30;90.80;;;;;;5070181;28;20214;-72
2022/01/28 01:52:00;;;;;;;5.00;3.60;;;-3.30;90.70;;;;;;5072814;28;20179;-73
2022/01/28 01:52:38;;;;;;;7.53;3.87;;;-3.40;90.60;;;;;;5071557;28;20572;-73
2022/01/28 01:55:05;;;;;;;5.87;4.10;;;-3.40;90.60;;;;;;5074680;28;20187;-73
2022/01/28 01:57:30;;;;;;;3.33;3.10;;;-3.40;90.50;;;;;;5074367;28;20254;-73
2022/01/28 01:59:56;;;;;;;9.47;4.53;;;-3.40;90.60;;;;;;5067541;28;20194;-73
2022/01/28 02:02:22;;;;;;;7.43;3.90;;;-3.40;90.50;;;;;;5068889;28;20226;-73
2022/01/28 02:04:47;;;;;;;6.77;5.03;;;-3.40;90.50;;;;;;5074827;28;20185;-73
2022/01/28 02:07:16;;;;;;;10.17;4.03;;;-3.50;90.50;;;;;;5074509;28;20181;-73
2022/01/28 02:09:42;;;;;;;3.50;3.27;;;-3.50;90.70;;;;;;5068229;28;20234;-73
2022/01/28 02:12:09;;;;;;;6.30;3.33;;;-3.50;90.70;;;;;;5075426;28;20184;-73
2022/01/28 02:14:35;;;;;;;3.47;3.20;;;-3.50;90.60;;;;;;5070998;28;20184;-74
2022/01/28 02:17:02;;;;;;;4.37;1.77;;;-3.50;90.50;;;;;;5070912;28;20222;-73
2022/01/28 02:19:28;;;;;;;5.13;3.03;;;-3.50;90.70;;;;;;5074249;28;20258;-73
2022/01/28 02:21:54;;;;;;;9.83;3.80;;;-3.50;90.50;;;;;;5072984;28;20923;-73
2022/01/28 02:24:30;;;;;;;5.07;3.23;;;-3.60;90.80;;;;;;5072141;28;20193;-73
2022/01/28 02:26:56;;;;;;;4.30;2.80;;;-3.50;90.90;;;;;;5071966;28;20192;-74
2022/01/28 02:29:30;;;;;;;3.33;2.30;;;-3.50;91.00;;;;;;5067658;28;20185;-74
2022/01/28 02:31:58;;;;;;;9.33;2.93;;;-3.50;90.90;;;;;;5076408;28;20235;-73
2022/01/28 02:34:24;;;;;;;3.70;3.00;;;-3.50;90.80;;;;;;5072436;28;20185;-73
2022/01/28 02:36:50;;;;;;;3.97;3.17;;;-3.50;90.80;;;;;;5071241;28;20193;-73
2022/01/28 02:39:16;;;;;;;8.17;3.40;;;-3.50;90.50;;;;;;5069616;28;20189;-74
2022/01/28 02:41:46;;;;;;;6.87;4.23;;;-3.50;90.40;;;;;;5070649;28;20221;-72
2022/01/28 02:44:23;;;;;;;5.30;4.00;;;-3.60;90.40;;;;;;5071116;28;20189;-73
2022/01/28 02:46:58;;;;;;;9.53;4.53;;;-3.60;90.40;;;;;;5070272;28;20988;-74
2022/01/28 02:49:27;;;;;;;3.17;2.80;;;-3.60;90.50;;;;;;5073867;28;20173;-75
2022/01/28 02:51:54;;;;;;;5.90;2.87;;;-3.60;90.70;;;;;;5070821;28;20776;-75
2022/01/28 02:54:20;;;;;;;7.43;2.67;;;-3.70;90.80;;;;;;5071191;28;20185;-74
2022/01/28 02:56:52;;;;;;;2.07;1.93;;;-3.60;90.80;;;;;;5067504;28;20571;-75
2022/01/28 02:59:18;;;;;;;5.90;2.03;;;-3.60;90.90;;;;;;5065983;28;20190;-75
2022/01/28 03:01:44;;;;;;;3.40;2.40;;;-3.70;90.80;;;;;;5071564;28;20619;-73
2022/01/28 03:04:14;;;;;;;3.03;1.97;;;-3.70;90.80;;;;;;5072214;28;20183;-74
2022/01/28 03:06:40;;;;;;;3.00;1.83;;;-3.70;90.80;;;;;;5064118;28;20677;-74
2022/01/28 03:09:16;;;;;;;4.70;2.77;;;-3.70;90.80;;;;;;5065217;28;20187;-74
2022/01/28 03:17:05;;;;;;;3.27;2.97;;;-3.60;90.80;;;;;;5069189;28;20260;-73
2022/01/28 03:19:44;;;;;;;1.87;1.77;;;-3.60;90.80;;;;;;5071153;28;20185;-73
2022/01/28 03:22:11;;;;;;;2.00;1.90;;;-3.60;90.80;;;;;;5072097;28;20218;-74
2022/01/28 03:24:39;;;;;;;11.33;2.03;;;-3.50;90.70;;;;;;5069989;28;20190;-74
2022/01/28 03:27:11;;;;;;;9.77;2.90;;;-3.50;90.50;;;;;;5069133;28;20592;-74
2022/01/28 03:29:37;;;;;;;5.40;2.77;;;-3.50;90.40;;;;;;5070470;28;20179;-74
2022/01/28 03:32:02;;;;;;;3.97;2.63;;;-3.50;90.20;;;;;;5073595;28;20216;-74
2022/01/28 03:34:28;;;;;;;3.57;2.47;;;-3.50;90.20;;;;;;5067649;28;20180;-73
2022/01/28 03:36:56;;;;;;;4.57;2.97;;;-3.50;90.10;;;;;;5071221;28;20733;-74
2022/01/28 03:39:22;;;;;;;3.90;3.50;;;-3.50;90.00;;;;;;5064342;28;20182;-73
2022/01/28 03:41:47;;;;;;;11.47;2.60;;;-3.50;89.90;;;;;;5075886;28;20587;-75
2022/01/28 03:44:13;;;;;;;6.20;2.53;;;-3.50;89.80;;;;;;5069947;28;20291;-73
2022/01/28 03:46:39;;;;;;;1.77;1.67;;;-3.60;89.80;;;;;;5069094;28;20182;-73
2022/01/28 03:49:06;;;;;;;5.70;3.03;;;-3.60;89.80;;;;;;5071509;28;20188;-74
2022/01/28 03:51:31;;;;;;;4.03;2.67;;;-3.70;89.80;;;;;;5067513;28;20596;-74
2022/01/28 03:53:57;;;;;;;2.53;1.90;;;-3.70;89.80;;;;;;5072475;28;20243;-73
2022/01/28 03:56:23;;;;;;;5.23;2.47;;;-3.70;89.80;;;;;;5071925;28;20185;-74
2022/01/28 03:58:49;;;;;;;1.80;1.73;;;-3.70;90.00;;;;;;5069172;28;20182;-74
2022/01/28 04:01:19;;;;;;;2.77;2.57;;;-3.80;89.80;;;;;;5074528;28;20807;-74
2022/01/28 04:11:52;;;;;;;3.10;2.13;;;-3.80;89.60;;;;;;5068110;28;20213;-73
2022/01/28 04:14:36;;;;;;;3.10;1.47;;;-3.90;89.90;;;;;;5064351;28;20182;-73
2022/01/28 04:17:22;;;;;;;2.03;1.90;;;-3.90;90.00;;;;;;5071548;28;20175;-73
2022/01/28 04:19:49;;;;;;;3.20;1.77;;;-4.00;90.20;;;;;;5070302;28;20206;-73
2022/01/28 04:22:15;;;;;;;2.90;2.43;;;-4.00;90.30;;;;;;5070214;28;20220;-74
2022/01/28 04:24:41;;;;;;;2.20;2.00;;;-4.00;90.40;;;;;;5063448;28;20905;-74
2022/01/28 04:27:07;;;;;;;1.73;1.63;;;-4.00;90.40;;;;;;5068946;28;20190;-73
2022/01/28 04:29:33;;;;;;;2.57;1.87;;;-4.00;90.40;;;;;;5071238;28;20214;-73
2022/01/28 04:31:58;;;;;;;2.37;1.70;;;-4.00;90.40;;;;;;5071322;28;20814;-73
2022/01/28 04:34:24;;;;;;;15.63;2.83;;;-4.00;90.40;;;;;;5074428;28;20187;-74
2022/01/28 04:39:46;;;;;;;1.67;1.57;;;-4.00;90.50;;;;;;5071736;28;20180;-74
2022/01/28 04:45:07;;;;;;;2.07;1.60;;;-4.10;90.40;;;;;;5064888;28;20268;-75
2022/01/28 04:47:43;;;;;;;4.83;2.00;;;-4.10;90.50;;;;;;5068726;28;20212;-74
2022/01/28 05:04:02;;;;;;;1.13;1.13;;;-4.10;90.50;;;;;;5069146;28;20217;-74
2022/01/28 05:27:41;;;;;;;4.07;1.93;;;-4.10;90.40;;;;;;5074397;28;20180;-74
2022/01/28 05:30:07;;;;;;;2.33;2.20;;;-4.10;90.50;;;;;;5071703;28;20231;-74
2022/01/28 05:32:33;;;;;;;2.37;2.17;;;-4.10;90.40;;;;;;5084256;28;20192;-74
2022/01/28 05:34:58;;;;;;;7.00;2.13;;;-4.10;90.50;;;;;;5073315;28;20181;-75
2022/01/28 05:37:24;;;;;;;8.20;1.87;;;-4.10;90.80;;;;;;5077539;28;20195;-74
2022/01/28 05:39:50;;;;;;;1.23;1.13;;;-4.10;91.10;;;;;;5066567;28;20679;-73
2022/01/28 05:42:15;;;;;;;2.70;2.40;;;-4.10;91.20;;;;;;5066795;28;20248;-73
2022/01/28 05:44:41;;;;;;;6.03;3.03;;;-4.10;91.00;;;;;;5069209;28;20193;-73
2022/01/28 05:47:07;;;;;;;3.23;1.60;;;-4.10;91.00;;;;;;5072434;28;20255;-74
2022/01/28 05:49:33;;;;;;;3.90;2.20;;;-4.10;90.80;;;;;;5066771;28;20757;-73
2022/01/28 05:51:59;;;;;;;1.90;1.70;;;-4.20;90.80;;;;;;5069681;28;20194;-73
2022/01/28 05:54:25;;;;;;;2.63;2.53;;;-4.20;91.00;;;;;;5068462;28;20193;-73
2022/01/28 05:56:51;;;;;;;10.33;1.77;;;-4.20;90.90;;;;;;5070584;28;20190;-73
2022/01/28 05:59:19;;;;;;;3.07;2.87;;;-4.30;91.00;;;;;;5067723;28;20261;-74
2022/01/28 06:01:44;;;;;;;2.00;1.90;;;-4.30;91.00;;;;;;5070863;28;20334;-74
2022/01/28 06:04:10;;;;;;;4.50;1.97;;;-4.30;91.10;;;;;;5074006;28;20695;-74
2022/01/28 06:06:36;;;;;;;5.97;2.40;;;-4.30;91.10;;;;;;5072342;28;20181;-75
2022/01/28 06:09:02;;;;;;;2.27;2.00;;;-4.30;91.30;;;;;;5067877;28;20176;-70
2022/01/28 06:11:28;;;;;;;3.63;2.67;;;-4.20;91.40;;;;;;5066687;28;20699;-70
2022/01/28 06:13:54;;;;;;;4.50;3.00;;;-4.20;91.40;;;;;;5073346;28;20223;-71
2022/01/28 06:16:20;;;;;;;2.77;2.50;;;-4.20;91.40;;;;;;5074891;28;20198;-72
2022/01/28 06:18:46;;;;;;;2.30;2.10;;;-4.20;91.40;;;;;;5070699;28;20191;-72
2022/01/28 06:21:12;;;;;;;4.00;2.00;;;-4.10;91.40;;;;;;5070453;28;20260;-75
2022/01/28 06:23:38;;;;;;;3.40;2.87;;;-4.10;91.30;;;;;;5070687;28;20225;-74
2022/01/28 06:26:05;;;;;;;2.40;2.30;;;-4.00;91.20;;;;;;5069841;28;20186;-76
2022/01/28 06:28:31;;;;;;;2.93;2.43;;;-4.00;91.20;;;;;;5069840;28;20273;-75
2022/01/28 06:30:57;;;;;;;5.03;3.03;;;-3.90;91.20;;;;;;5066672;28;20177;-74
2022/01/28 06:33:22;;;;;;;4.80;2.67;;;-3.90;91.10;;;;;;5070650;28;20193;-74
2022/01/28 06:35:48;;;;;;;2.13;2.03;;;-3.80;90.80;;;;;;5070772;28;20185;-74
2022/01/28 06:38:15;;;;;;;3.70;3.40;;;-3.80;90.80;;;;;;5070655;28;20194;-74
2022/01/28 06:40:41;;;;;;;4.00;2.57;;;-3.80;90.90;;;;;;5063410;28;20189;-73
2022/01/28 06:43:11;;;;;;;5.63;3.37;;;-3.70;90.80;;;;;;5068325;28;20216;-73
2022/01/28 06:45:40;;;;;;;7.50;2.70;;;-3.70;90.90;;;;;;5067316;28;20185;-74
2022/01/28 06:48:07;;;;;;;3.37;2.63;;;-3.60;91.10;;;;;;5066280;28;20700;-72
2022/01/28 06:50:34;;;;;;;4.53;3.60;;;-3.50;90.90;;;;;;5064059;28;20251;-77
2022/01/28 06:53:00;;;;;;;4.30;2.93;;;-3.40;90.90;;;;;;5067239;28;20187;-71
2022/01/28 06:55:25;;;;;;;3.80;3.13;;;-3.20;90.90;;;;;;5067717;28;20186;-72
2022/01/28 06:57:54;;;;;;;5.43;3.20;;;-3.00;90.60;;;;;;5064299;28;20577;-73
2022/01/28 07:00:20;;;;;;;5.50;4.43;;;-2.70;90.80;;;;;;5071398;28;20591;-75
2022/01/28 07:02:46;;;;;;;3.10;2.57;;;-2.30;90.50;;;;;;5069521;28;20223;-72
2022/01/28 07:05:12;;;;;;;4.60;3.73;;;-1.90;90.50;;;;;;5065593;28;20238;-74
2022/01/28 07:07:38;;;;;;;4.17;2.63;;;-1.40;89.70;;;;;;5064549;28;20222;-72
2022/01/28 07:10:04;;;;;;;3.97;3.57;;;-0.80;89.50;;;;;;5073799;28;20282;-74
2022/01/28 07:12:30;;;;;;;6.60;3.23;;;-0.20;88.30;;;;;;5070855;28;20183;-73
2022/01/28 07:14:55;;;;;;;7.53;3.50;;;0.50;89.30;;;;;;5067537;28;20194;-72
2022/01/28 07:17:21;;;;;;;7.20;4.57;;;1.30;88.20;;;;;;5068508;28;20189;-73
2022/01/28 07:19:47;;;;;;;13.53;5.00;;;2.00;87.10;;;;;;5071930;28;20262;-73
2022/01/28 07:22:13;;;;;;;8.93;4.47;;;2.70;84.80;;;;;;5067193;28;21006;-73
2022/01/28 07:24:38;;;;;;;8.57;4.13;;;3.40;83.00;;;;;;5070469;28;20186;-74
2022/01/28 07:27:05;;;;;;;7.47;4.80;;;4.10;81.30;;;;;;5066384;28;20275;-74
2022/01/28 07:29:33;;;;;;;23.60;5.17;;;4.60;77.40;;;;;;5064915;28;20185;-74
2022/01/28 07:32:00;;;;;;;10.30;5.40;;;5.20;76.90;;;;;;5072770;28;20675;-74
2022/01/28 07:34:26;;;;;;;10.03;5.17;;;5.60;72.30;;;;;;5071024;28;20182;-74
2022/01/28 07:36:51;;;;;;;15.97;5.20;;;5.70;71.30;;;;;;5070162;28;20182;-74
2022/01/28 07:39:17;;;;;;;12.23;5.30;;;5.60;69.80;;;;;;5070675;28;20174;-74
2022/01/28 07:41:43;;;;;;;12.40;5.57;;;5.40;68.70;;;;;;5069547;28;20239;-74
2022/01/28 07:44:09;;;;;;;9.83;5.23;;;5.30;70.50;;;;;;5073052;28;20179;-73
2022/01/28 07:46:35;;;;;;;11.57;6.10;;;5.60;70.70;;;;;;5074143;28;20183;-73
2022/01/28 07:49:01;;;;;;;9.13;5.93;;;5.90;70.30;;;;;;5068075;28;20202;-74
2022/01/28 07:51:27;;;;;;;15.20;6.03;;;6.30;69.30;;;;;;5065659;28;20233;-74
2022/01/28 07:53:53;;;;;;;10.70;6.13;;;6.70;69.30;;;;;;5067964;28;20691;-74
2022/01/28 07:56:20;;;;;;;12.17;6.63;;;7.10;66.70;;;;;;5069601;28;20183;-74
2022/01/28 07:58:46;;;;;;;11.60;6.77;;;7.60;67.50;;;;;;5083868;28;20183;-74
2022/01/28 08:01:11;;;;;;;14.60;6.97;;;8.20;67.70;;;;;;5071242;28;20186;-74
2022/01/28 08:03:37;;;;;;;14.53;6.20;;;8.80;65.80;;;;;;5067041;28;20210;-73
2022/01/28 08:06:03;;;;;;;9.07;6.07;;;9.20;63.20;;;;;;5071735;28;20229;-74
2022/01/28 08:08:30;;;;;;;12.43;6.97;;;9.40;62.50;;;;;;5066345;28;20181;-72
2022/01/28 08:10:56;;;;;;;14.10;6.60;;;9.50;62.20;;;;;;5068527;28;20193;-73
2022/01/28 08:13:22;;;;;;;10.63;5.53;;;9.70;61.90;;;;;;5076354;28;22367;-74
2022/01/28 08:15:48;;;;;;;9.37;6.10;;;9.40;59.90;;;;;;5060265;28;20187;-73
2022/01/28 08:18:14;;;;;;;7.87;6.30;;;8.90;60.30;;;;;;5073453;28;20179;-73
2022/01/28 08:20:40;;;;;;;15.87;7.17;;;8.80;61.20;;;;;;5067221;28;20216;-74
2022/01/28 08:23:06;;;;;;;13.53;6.77;;;9.00;62.10;;;;;;5069407;28;20210;-74
2022/01/28 08:25:35;;;;;;;17.40;6.87;;;9.20;60.50;;;;;;5067373;28;20656;-73
2022/01/28 08:28:02;;;;;;;17.60;8.47;;;9.50;60.90;;;;;;5065868;28;20190;-73
2022/01/28 08:30:29;;;;;;;13.63;8.70;;;10.00;60.50;;;;;;5059007;28;20183;-73
2022/01/28 08:32:55;;;;;;;13.33;8.93;;;10.30;60.10;;;;;;5069111;28;20190;-74
2022/01/28 08:35:29;;;;;;;20.27;8.30;;;10.70;60.00;;;;;;5071926;28;20242;-73
2022/01/28 08:37:57;;;;;;;15.40;8.85;;;11.10;59.80;;;;;;5066504;28;20182;-73
2022/01/28 08:40:24;;;;;;;13.63;7.95;;;11.80;60.00;;;;;;5062387;28;20181;-74
2022/01/28 08:42:50;;;;;;;14.75;7.72;;;12.30;59.20;;;;;;5062457;28;20214;-74
2022/01/28 08:45:16;;;;;;;20.98;8.82;;;12.90;58.10;;;;;;5069595;28;20179;-74
2022/01/28 08:47:42;;;;;;;16.80;9.70;;;13.20;56.80;;;;;;5072454;28;20281;-73
2022/01/28 08:50:09;;;;;;;20.00;9.32;;;13.20;55.70;;;;;;5075267;28;20582;-73
2022/01/28 08:52:36;;;;;;;18.27;9.30;;;13.10;54.80;;;;;;5077561;28;20170;-74
2022/01/28 08:55:03;;;;;;;21.80;11.00;;;12.70;54.40;;;;;;5075662;28;20188;-74
2022/01/28 08:57:29;;;;;;;32.85;16.98;;;12.30;56.00;;;;;;5073420;28;20182;-74
2022/01/28 08:59:55;;;;;;;38.50;22.10;;;12.50;56.80;;;;;;5069759;28;20175;-74
2022/01/28 09:02:21;;;;;;;39.40;22.70;;;12.90;57.20;;;;;;5072577;28;20245;-74
2022/01/28 09:04:47;;;;;;;47.85;23.48;;;13.20;56.00;;;;;;5074996;28;20182;-74
2022/01/28 09:07:13;;;;;;;43.25;23.27;;;13.70;54.40;;;;;;5077553;28;20170;-74
2022/01/28 09:09:48;;;;;;;55.38;24.52;;;14.10;55.50;;;;;;5068173;28;20187;-73
2022/01/28 09:14:46;;;;;;;41.50;23.75;;;15.00;53.70;;;;;;5069849;28;20195;-74
2022/01/28 09:17:12;;;;;;;55.75;26.85;;;14.90;52.20;;;;;;5073831;28;20175;-74
2022/01/28 09:19:37;;;;;;;48.28;25.10;;;14.60;51.80;;;;;;5068692;28;20951;-73
2022/01/28 09:22:04;;;;;;;42.30;24.08;;;14.30;52.10;;;;;;5067788;28;20202;-73
2022/01/28 09:24:30;;;;;;;47.38;25.85;;;14.40;51.30;;;;;;5075909;28;20727;-74
2022/01/28 09:26:56;;;;;;;47.13;24.98;;;14.50;52.70;;;;;;5073727;28;20274;-74
2022/01/28 09:29:22;;;;;;;53.38;24.33;;;14.50;51.10;;;;;;5072126;28;20182;-73
2022/01/28 09:31:49;;;;;;;41.85;23.92;;;14.20;51.10;;;;;;5063104;28;20610;-73
2022/01/28 09:34:15;;;;;;;50.53;24.35;;;13.80;52.80;;;;;;5073603;28;20174;-73
2022/01/28 09:36:40;;;;;;;41.97;22.70;;;13.70;52.80;;;;;;5083293;28;20186;-74
2022/01/28 09:39:07;;;;;;;36.20;19.88;;;13.60;52.90;;;;;;5066776;28;20175;-73
2022/01/28 09:41:35;;;;;;;33.75;18.08;;;13.40;52.50;;;;;;5067919;28;20174;-73
2022/01/28 09:44:02;;;;;;;28.25;16.08;;;13.20;52.90;;;;;;5071933;28;20179;-73
2022/01/28 09:46:31;;;;;;;29.77;15.50;;;12.80;53.00;;;;;;5068658;28;20174;-71
2022/01/28 09:48:57;;;;;;;26.80;15.80;;;12.40;53.20;;;;;;5077239;28;20178;-72
2022/01/28 09:51:23;;;;;;;30.58;15.88;;;12.00;53.60;;;;;;5068460;28;20202;-73
2022/01/28 09:53:49;;;;;;;34.03;17.00;;;11.50;53.70;;;;;;5070270;28;20820;-73
2022/01/28 09:56:14;;;;;;;30.00;16.48;;;10.80;53.90;;;;;;5072443;28;20179;-72
2022/01/28 09:58:41;;;;;;;31.02;17.33;;;10.10;55.50;;;;;;5072231;28;20171;-73
2022/01/28 10:01:06;;;;;;;32.92;17.25;;;9.50;56.30;;;;;;5066030;28;20416;-73
2022/01/28 10:03:35;;;;;;;28.67;15.32;;;9.00;57.70;;;;;;5071009;28;20213;-74
2022/01/28 10:06:01;;;;;;;33.17;17.02;;;8.70;58.50;;;;;;5064536;28;20176;-73
2022/01/28 10:08:28;;;;;;;32.60;16.02;;;8.50;59.10;;;;;;5073335;28;20182;-73
2022/01/28 10:11:05;;;;;;;29.70;16.83;;;8.30;59.40;;;;;;5068621;28;20312;-73
2022/01/28 10:16:09;;;;;;;32.22;14.13;;;7.90;60.50;;;;;;5065846;28;20560;-75
2022/01/28 10:18:35;;;;;;;30.40;15.68;;;7.80;60.70;;;;;;5057793;28;20636;-72
2022/01/28 10:21:01;;;;;;;33.83;17.70;;;7.70;60.70;;;;;;5065840;28;20183;-75
2022/01/28 10:23:27;;;;;;;28.70;17.03;;;;;;;;;;5063475;28;21037;-74
2022/01/28 10:26:01;;;;;;;34.60;17.60;;;7.50;61.80;;;;;;5066553;28;20240;-75
2022/01/28 10:28:26;;;;;;;33.43;16.30;;;7.40;61.70;;;;;;5067755;28;20648;-73
2022/01/28 10:30:52;;;;;;;36.00;16.53;;;7.30;61.70;;;;;;5074850;28;20189;-73
2022/01/28 10:33:22;;;;;;;37.67;17.27;;;7.20;61.90;;;;;;5063109;28;20175;-73
2022/01/28 10:35:52;;;;;;;30.23;16.23;;;6.90;62.40;;;;;;5063691;28;20255;-73
2022/01/28 10:38:31;;;;;;;48.53;22.73;;;6.90;62.80;;;;;;5067127;28;20185;-74
2022/01/28 10:41:16;;;;;;;45.80;22.40;;;6.70;63.20;;;;;;5069453;28;20187;-72
2022/01/28 10:43:44;;;;;;;47.00;21.43;;;6.60;63.30;;;;;;5067769;28;20218;-71
2022/01/28 10:46:10;;;;;;;45.07;22.60;;;6.50;63.70;;;;;;5067755;28;20176;-72
2022/01/28 10:48:57;;;;;;;40.00;19.83;;;6.40;64.20;;;;;;5067671;28;20190;-73
2022/01/28 10:51:43;;;;;;;38.70;20.33;;;6.30;64.40;;;;;;5070010;28;20197;-73
2022/01/28 10:54:14;;;;;;;41.73;19.63;;;6.20;64.90;;;;;;5071626;28;20641;-73
2022/01/28 10:56:57;;;;;;;37.37;20.20;;;6.10;65.00;;;;;;5057588;28;20283;-73
2022/01/28 10:59:26;;;;;;;35.50;19.70;;;6.10;64.60;;;;;;5058062;28;20207;-72
2022/01/28 11:01:53;;;;;;;36.10;18.27;;;6.00;65.00;;;;;;5059431;28;20244;-73
2022/01/28 11:04:20;;;;;;;45.93;18.97;;;6.00;65.00;;;;;;5063705;28;21167;-71
2022/01/28 11:06:47;;;;;;;28.63;17.43;;;6.00;65.10;;;;;;5069556;28;20883;-72
2022/01/28 11:09:15;;;;;;;39.43;19.03;;;6.10;65.10;;;;;;5072539;28;20283;-72
2022/01/28 11:11:42;;;;;;;41.53;19.90;;;6.00;65.20;;;;;;5066866;28;20222;-73
2022/01/28 11:14:08;;;;;;;44.03;18.13;;;6.10;65.30;;;;;;5061354;28;20234;-73
2022/01/28 11:16:35;;;;;;;36.77;17.67;;;6.10;65.20;;;;;;5070379;28;20887;-74
2022/01/28 11:19:03;;;;;;;41.00;17.83;;;6.10;65.30;;;;;;5066502;28;20175;-73
2022/01/28 11:21:34;;;;;;;36.37;18.47;;;6.10;65.50;;;;;;5069500;28;20273;-73
2022/01/28 11:24:34;;;;;;;35.53;17.20;;;6.00;65.70;;;;;;5064832;28;20190;-73
2022/01/28 11:27:18;;;;;;;39.37;19.73;;;6.00;65.70;;;;;;5061724;28;20191;-73
2022/01/28 11:29:44;;;;;;;32.60;16.60;;;5.90;66.20;;;;;;5067566;28;20190;-74
2022/01/28 11:32:14;;;;;;;20.90;11.50;;;5.80;66.50;;;;;;5074885;28;20179;-74
2022/01/28 11:35:06;;;;;;;26.40;12.20;;;5.80;66.80;;;;;;5065616;28;20187;-73
2022/01/28 11:37:33;;;;;;;20.80;10.80;;;5.90;67.10;;;;;;5083304;28;20182;-73
2022/01/28 11:40:10;;;;;;;16.93;8.67;;;5.90;67.20;;;;;;5066308;28;20259;-74
2022/01/28 11:42:38;;;;;;;14.83;8.77;;;6.00;67.60;;;;;;5068249;28;20207;-72
2022/01/28 11:45:09;;;;;;;16.33;9.23;;;6.10;67.60;;;;;;5071066;28;20267;-73
2022/01/28 11:47:56;;;;;;;16.10;7.57;;;6.10;68.10;;;;;;5071836;28;20221;-73
2022/01/28 11:50:23;;;;;;;9.17;5.30;;;6.10;68.90;;;;;;5067890;28;20270;-74
2022/01/28 11:52:52;;;;;;;5.10;4.27;;;6.10;69.80;;;;;;5064812;28;20194;-73
2022/01/28 11:55:17;;;;;;;4.10;3.73;;;6.00;70.70;;;;;;5082903;28;20278;-73
2022/01/28 11:58:04;;;;;;;3.97;2.60;;;6.10;71.40;;;;;;5068534;28;21103;-73
2022/01/28 12:00:41;;;;;;;3.03;2.10;;;6.20;71.20;;;;;;5066946;28;20182;-74
2022/01/28 12:03:18;;;;;;;2.00;1.60;;;6.30;71.30;;;;;;5061168;28;20302;-73
2022/01/28 12:05:44;;;;;;;2.70;1.60;;;;;;;;;;5062896;28;20624;-72
2022/01/28 12:08:12;;;;;;;1.77;1.30;;;6.50;71.20;;;;;;5061512;28;20189;-73
2022/01/28 12:10:44;;;;;;;2.80;1.27;;;6.60;71.30;;;;;;5061844;28;20551;-71
2022/01/28 12:13:14;;;;;;;2.07;1.87;;;6.60;71.60;;;;;;5058389;28;20304;-72
2022/01/28 12:16:03;;;;;;;2.70;2.50;;;6.70;71.70;;;;;;5060353;28;20190;-71
2022/01/28 12:18:56;;;;;;;1.77;1.70;;;6.60;72.10;;;;;;5060562;28;20217;-71
2022/01/28 12:21:38;;;;;;;2.43;2.33;;;6.60;72.40;;;;;;5063137;28;20189;-73
2022/01/28 12:24:19;;;;;;;3.67;2.03;;;6.50;72.80;;;;;;5061814;28;20667;-73
2022/01/28 12:27:11;;;;;;;4.17;2.43;;;6.50;73.10;;;;;;5063840;28;20191;-72
2022/01/28 12:29:37;;;;;;;3.97;3.57;;;;;;;;;;5082624;28;20965;-73
2022/01/28 12:32:04;;;;;;;3.93;3.23;;;6.40;73.50;;;;;;5059612;28;20194;-73
2022/01/28 12:34:31;;;;;;;3.97;3.57;;;6.50;73.50;;;;;;5059083;28;20180;-75
2022/01/28 12:36:58;;;;;;;2.30;2.00;;;6.50;73.30;;;;;;5066686;28;20190;-72
2022/01/28 12:39:43;;;;;;;2.87;1.87;;;6.60;73.10;;;;;;5068768;28;20183;-72
2022/01/28 12:42:22;;;;;;;1.73;1.63;;;6.50;72.50;;;;;;5062807;28;20297;-72
2022/01/28 12:44:53;;;;;;;2.37;1.73;;;6.50;72.70;;;;;;5064280;28;20183;-74
2022/01/28 12:47:20;;;;;;;1.97;1.57;;;6.40;72.30;;;;;;5057829;28;20195;-72
2022/01/28 12:49:46;;;;;;;1.90;1.20;;;;;;;;;;5060831;28;20191;-73
2022/01/28 12:52:12;;;;;;;7.83;1.40;;;6.50;72.00;;;;;;5063781;28;20187;-73
2022/01/28 12:54:38;;;;;;;1.10;1.10;;;6.40;72.00;;;;;;5063323;28;20198;-73
2022/01/28 12:57:05;;;;;;;0.73;0.73;;;6.40;71.80;;;;;;5058775;28;20186;-72
2022/01/28 12:59:32;;;;;;;2.00;1.23;;;;;;;;;;5066293;28;20243;-72
2022/01/28 13:01:58;;;;;;;1.63;1.50;;;6.30;72.20;;;;;;5064832;28;20965;-72
2022/01/28 13:04:48;;;;;;;1.73;1.50;;;6.30;72.20;;;;;;5067171;28;20267;-71
2022/01/28 13:09:56;;;;;;;2.33;1.20;;;6.10;73.20;;;;;;5065136;28;20195;-72
2022/01/28 13:12:27;;;;;;;3.60;1.20;;;6.10;73.40;;;;;;5066250;28;20190;-73
2022/01/28 13:14:54;;;;;;;1.67;1.57;;;6.10;73.40;;;;;;5071598;28;20185;-74
2022/01/28 13:17:23;;;;;;;1.30;1.17;;;6.00;73.30;;;;;;5067857;28;20175;-74
2022/01/28 13:20:00;;;;;;;2.10;1.57;;;5.90;73.20;;;;;;5065062;28;20567;-73
2022/01/28 13:22:29;;;;;;;1.53;1.30;;;5.90;73.30;;;;;;5066419;28;20204;-74
2022/01/28 13:24:56;;;;;;;1.93;1.40;;;5.80;73.50;;;;;;5068237;28;20179;-73
2022/01/28 13:27:37;;;;;;;8.97;1.40;;;5.80;73.50;;;;;;5073901;28;20221;-73
2022/01/28 13:30:12;;;;;;;2.10;2.00;;;5.80;73.70;;;;;;5064132;28;20195;-72
2022/01/28 13:32:41;;;;;;;2.30;1.77;;;5.70;74.00;;;;;;5068813;28;20174;-71
2022/01/28 13:35:13;;;;;;;2.33;2.03;;;5.60;74.20;;;;;;5076582;28;20605;-72
2022/01/28 13:37:49;;;;;;;1.73;1.63;;;5.60;74.40;;;;;;5064596;28;20211;-73
2022/01/28 13:40:17;;;;;;;2.10;1.70;;;5.50;74.20;;;;;;5070554;28;20196;-73
2022/01/28 13:43:18;;;;;;;2.37;1.33;;;5.40;74.40;;;;;;5068418;28;20648;-72
2022/01/28 13:45:48;;;;;;;6.83;1.30;;;;;;;;;;5067601;28;20186;-72
2022/01/28 13:48:38;;;;;;;1.53;1.43;;;5.10;75.10;;;;;;5067554;28;20297;-72
2022/01/28 13:51:16;;;;;;;0.80;0.80;;;5.10;75.40;;;;;;5062327;28;20197;-72
2022/01/28 13:56:41;;;;;;;1.57;1.07;;;4.80;76.30;;;;;;5070351;28;20206;-72
2022/01/28 13:59:15;;;;;;;1.57;1.37;;;4.70;76.30;;;;;;5070352;28;20604;-72
2022/01/28 14:01:50;;;;;;;2.87;1.17;;;4.50;76.60;;;;;;5073315;28;20221;-72
2022/01/28 14:04:40;;;;;;;1.03;1.03;;;4.50;76.90;;;;;;5074912;28;20174;-72
2022/01/28 14:07:19;;;;;;;0.50;0.50;;;4.40;77.00;;;;;;5066591;28;20194;-72
2022/01/28 14:09:57;;;;;;;0.70;0.70;;;4.30;77.20;;;;;;5067879;28;20193;-72
2022/01/28 14:12:24;;;;;;;1.17;1.03;;;;;;;;;;5072171;28;21094;-73
2022/01/28 14:14:51;;;;;;;1.23;1.20;;;;;;;;;;5073349;28;20183;-73
2022/01/28 14:17:17;;;;;;;6.60;1.10;;;;;;;;;;5074793;28;21065;-72
2022/01/28 14:19:44;;;;;;;2.57;1.73;;;;;;;;;;5074411;28;20285;-72
2022/01/28 14:22:12;;;;;;;1.67;1.57;;;4.30;78.00;;;;;;5069672;28;20210;-73
2022/01/28 14:24:40;;;;;;;2.50;1.33;;;4.30;78.00;;;;;;5082319;28;20210;-72
2022/01/28 14:27:45;;;;;;;1.80;1.70;;;4.20;78.10;;;;;;5074297;28;20186;-72
2022/01/28 14:32:51;;;;;;;1.67;1.57;;;4.20;78.10;;;;;;5042237;28;20264;-72
2022/01/28 14:35:17;;;;;;;1.20;1.07;;;4.10;77.90;;;;;;5041217;28;20756;-72